KHYA

Cape Cod Gateway Airport

Airport
ICAO code
KHYA
IATA Code
HYA
Summary
ICAO Region
NAM
ICAO Territory
Location

Hyannis, Massachusetts

Serving
Cape Cod
Elevation
54 ft
Coordinates
41° 39' 56" N , 70° 16' 57" W
KCC
Airport BS
Bird Strike
Airport WX
Cumulonimbus
Metar
KHYA 230332Z AUTO 07003KT 4SM BR OVC004 19/19 A2998 RMK AO2 T01940189

Description

Cape Cod Gateway Airport, previously known as Barnstable Municipal Airport and also known as Boardman/Polando Field, is a public airport located on Cape Cod, 1.5 nm north of the central business district of Hyannis, in Barnstable County, Massachusetts.

Airport map

Aerial View

SKYbrary Partners:

Safety knowledge contributed by: